Alexandria Bay, New York
Current Conditions -  °F | °C
As of 10:58 AM on Saturday 20 Dec 2014 (Local Time) from KGTB Reporting Station
Clear Clear  
Wind Chill: -7°   Ceiling: Unl
Heat Index: -7°   Visibility: 10mi
Dew Point: -10°   Wind: 2mph
Humidity: 81%   Direction: 90°E
Pressure: 30.28"   Gusts: NA
Location:  44.34°N, 75.92°W
Report Text: KGTB 201558Z AUTO 09002KT 10SM CLR M07/M10 A3028 RMK AO2 SLP268 T10741102
Loading
Personal Weather Stations






























Interactive Weather Map New forecast layout! Learn more

10-Day Weather Forecast

Advertisements
Track Severe Weather on mobile